Time;durP1;ratioP1;P1;durP2;ratioP2;P2;SDS_P1;SDS_P2;PMS_P1;PMS_P2;Temp;Humidity;BMP_temperature;BMP_pressure;BME280_temperature;BME280_humidity;BME280_pressure;Samples;Min_cycle;Max_cycle;Signal;HPM_P1;HPM_P2
2023/07/31 00:00:03;;;;;;;;;3.33;3.33;;;;;;;;4776181;29;66159;-93
2023/07/31 00:02:48;;;;;;;;;4.00;4.00;;;;;;;;4780352;29;47201;-92
2023/07/31 00:05:16;;;;;;;;;3.33;3.33;;;;;;;;4797006;29;45501;-92
2023/07/31 00:07:57;;;;;;;;;3.67;3.67;;;;;;;;4781273;29;45437;-92
2023/07/31 00:10:25;;;;;;;;;4.33;4.33;;;;;;;;4784240;29;45484;-92
2023/07/31 00:13:10;;;;;;;;;5.67;5.67;;;;;;;;4782622;29;46713;-92
2023/07/31 00:15:43;;;;;;;;;6.00;5.33;;;;;;;;4782188;29;45628;-93
2023/07/31 00:20:59;;;;;;;;;5.33;5.33;;;;;;;;4773851;29;45298;-93
2023/07/31 00:23:30;;;;;;;;;3.33;3.33;;;;;;;;4784599;29;46751;-92
2023/07/31 00:25:58;;;;;;;;;6.00;3.00;;;;;;;;4782387;29;45969;-92
2023/07/31 00:28:28;;;;;;;;;3.67;3.67;;;;;;;;4781014;29;45530;-92
2023/07/31 00:30:59;;;;;;;;;3.67;3.67;;;;;;;;4782392;29;45186;-92
2023/07/31 00:33:24;;;;;;;;;2.33;2.33;;;;;;;;4781213;29;46418;-92
2023/07/31 00:35:49;;;;;;;;;4.33;4.33;;;;;;;;4782879;29;45517;-92
2023/07/31 00:38:19;;;;;;;;;4.00;4.00;;;;;;;;4783317;29;45428;-92
2023/07/31 00:40:47;;;;;;;;;3.00;3.00;;;;;;;;4780819;29;45617;-92
2023/07/31 00:43:22;;;;;;;;;;;;;;;;;;;;;
2023/07/31 00:45:48;;;;;;;;;3.00;3.00;;;;;;;;4783938;29;72965;-92
2023/07/31 00:48:16;;;;;;;;;3.00;3.00;;;;;;;;4780999;29;45520;-92
2023/07/31 00:50:51;;;;;;;;;3.00;3.00;;;;;;;;4783614;29;45538;-93
2023/07/31 00:53:19;;;;;;;;;3.00;3.00;;;;;;;;4782240;29;47032;-92
2023/07/31 00:55:48;;;;;;;;;5.67;4.33;;;;;;;;4784840;29;45283;-92
2023/07/31 00:58:18;;;;;;;;;7.00;6.00;;;;;;;;4794441;29;45525;-93
2023/07/31 01:00:46;;;;;;;;;4.00;4.00;;;;;;;;4781577;29;45524;-93
2023/07/31 01:03:37;;;;;;;;;4.67;4.67;;;;;;;;4781927;29;47763;-92
2023/07/31 01:06:02;;;;;;;;;4.33;4.33;;;;;;;;4781565;29;45549;-92
2023/07/31 01:08:46;;;;;;;;;;;;;;;;;;;;;
2023/07/31 01:11:32;;;;;;;;;2.33;2.33;;;;;;;;4782841;29;65259;-92
2023/07/31 01:14:08;;;;;;;;;;;;;;;;;;;;;
2023/07/31 01:16:42;;;;;;;;;5.00;4.67;;;;;;;;4782932;29;72906;-92
2023/07/31 01:19:30;;;;;;;;;2.00;2.00;;;;;;;;4784528;29;46455;-92
2023/07/31 01:22:32;;;;;;;;;3.00;3.00;;;;;;;;4783645;29;45354;-92
2023/07/31 01:25:06;;;;;;;;;3.67;3.67;;;;;;;;4735943;30;46377;-92
2023/07/31 01:27:44;;;;;;;;;5.33;4.67;;;;;;;;4771763;29;45463;-92
2023/07/31 01:30:22;;;;;;;;;7.67;7.00;;;;;;;;4783417;29;45396;-92
2023/07/31 01:33:01;;;;;;;;;5.67;5.67;;;;;;;;4781121;29;45377;-92
2023/07/31 01:35:27;;;;;;;;;3.00;3.00;;;;;;;;4779420;29;46736;-93
2023/07/31 01:37:55;;;;;;;;;7.00;4.67;;;;;;;;4781744;29;46582;-92
2023/07/31 01:40:26;;;;;;;;;1.00;1.00;;;;;;;;4783648;29;45473;-92
2023/07/31 01:43:12;;;;;;;;;4.00;4.00;;;;;;;;4782434;29;45443;-92
2023/07/31 01:45:37;;;;;;;;;4.33;4.33;;;;;;;;4781785;29;47144;-92
2023/07/31 01:48:03;;;;;;;;;4.00;4.00;;;;;;;;4778831;29;45425;-92
2023/07/31 01:50:48;;;;;;;;;4.67;4.67;;;;;;;;4778500;29;45407;-92
2023/07/31 01:53:18;;;;;;;;;3.00;3.00;;;;;;;;4783327;29;45600;-92
2023/07/31 01:55:46;;;;;;;;;7.00;6.00;;;;;;;;4779723;29;48535;-92
2023/07/31 01:58:11;;;;;;;;;4.00;4.00;;;;;;;;4783247;29;45479;-92
2023/07/31 02:00:37;;;;;;;;;5.33;5.33;;;;;;;;4781602;29;45368;-92
2023/07/31 02:03:05;;;;;;;;;6.33;6.33;;;;;;;;4783124;29;45420;-92
2023/07/31 02:05:38;;;;;;;;;6.33;6.33;;;;;;;;4780220;29;47889;-92
2023/07/31 02:08:06;;;;;;;;;6.00;6.00;;;;;;;;4779880;29;45593;-92
2023/07/31 02:10:39;;;;;;;;;6.33;4.33;;;;;;;;4782951;29;45400;-92
2023/07/31 02:13:12;;;;;;;;;6.67;6.00;;;;;;;;4782602;29;45151;-92
2023/07/31 02:15:47;;;;;;;;;6.33;6.33;;;;;;;;4784415;29;48032;-92
2023/07/31 02:18:12;;;;;;;;;4.33;4.33;;;;;;;;4786662;29;45513;-92
2023/07/31 02:20:43;;;;;;;;;6.00;4.00;;;;;;;;4784448;29;45512;-92
2023/07/31 02:23:11;;;;;;;;;4.50;4.50;;;;;;;;4782726;29;45672;-92
2023/07/31 02:25:39;;;;;;;;;5.33;5.33;;;;;;;;4784096;29;48422;-92
2023/07/31 02:28:04;;;;;;;;;5.33;5.33;;;;;;;;4786779;29;45493;-92
2023/07/31 02:30:34;;;;;;;;;4.00;3.33;;;;;;;;4803551;29;45464;-92
2023/07/31 02:33:04;;;;;;;;;7.00;7.00;;;;;;;;4789076;29;45556;-92
2023/07/31 02:35:32;;;;;;;;;3.00;3.00;;;;;;;;4783624;29;46059;-92
2023/07/31 02:38:02;;;;;;;;;4.00;3.00;;;;;;;;4788470;29;45509;-92
2023/07/31 02:40:27;;;;;;;;;6.00;6.00;;;;;;;;4804324;29;45415;-92
2023/07/31 02:42:55;;;;;;;;;7.67;6.67;;;;;;;;4788053;29;45540;-93
2023/07/31 02:45:23;;;;;;;;;4.33;4.33;;;;;;;;4784078;29;47716;-92
2023/07/31 02:47:59;;;;;;;;;7.33;4.33;;;;;;;;4802401;29;45580;-92
2023/07/31 02:50:32;;;;;;;;;4.67;4.67;;;;;;;;4804754;29;45511;-92
2023/07/31 02:53:00;;;;;;;;;6.67;6.67;;;;;;;;4784517;29;45550;-92
2023/07/31 02:55:25;;;;;;;;;6.00;6.00;;;;;;;;4784376;29;45998;-93
2023/07/31 02:57:52;;;;;;;;;4.00;4.00;;;;;;;;4789650;29;45782;-92
2023/07/31 03:00:24;;;;;;;;;4.00;4.00;;;;;;;;4785659;29;45618;-92
2023/07/31 03:02:53;;;;;;;;;6.00;6.00;;;;;;;;4788714;29;45453;-92
2023/07/31 03:05:18;;;;;;;;;6.00;6.00;;;;;;;;4804192;29;46440;-92
2023/07/31 03:08:01;;;;;;;;;6.00;6.00;;;;;;;;4801240;29;45408;-93
2023/07/31 03:10:26;;;;;;;;;6.00;6.00;;;;;;;;4803088;29;45428;-92
2023/07/31 03:12:52;;;;;;;;;3.67;3.67;;;;;;;;4786896;29;45482;-92
2023/07/31 03:15:17;;;;;;;;;5.33;5.33;;;;;;;;4800488;29;46397;-92
2023/07/31 03:17:42;;;;;;;;;2.33;2.33;;;;;;;;4786819;29;46001;-92
2023/07/31 03:20:08;;;;;;;;;4.00;4.00;;;;;;;;4786844;29;45765;-92
2023/07/31 03:22:34;;;;;;;;;6.00;6.00;;;;;;;;4801616;29;45488;-92
2023/07/31 03:25:10;;;;;;;;;9.00;9.00;;;;;;;;4786146;29;47061;-92
2023/07/31 03:27:37;;;;;;;;;5.33;5.33;;;;;;;;4785275;29;45440;-92
2023/07/31 03:30:06;;;;;;;;;8.00;6.33;;;;;;;;4787230;29;45425;-91
2023/07/31 03:32:37;;;;;;;;;8.00;7.00;;;;;;;;4785588;29;45663;-92
2023/07/31 03:35:09;;;;;;;;;5.00;5.00;;;;;;;;4788402;29;48491;-91
2023/07/31 03:37:35;;;;;;;;;6.33;5.00;;;;;;;;4783781;29;45460;-93
2023/07/31 03:40:05;;;;;;;;;6.00;6.00;;;;;;;;4787718;29;45458;-92
2023/07/31 03:42:35;;;;;;;;;4.33;4.33;;;;;;;;4785328;29;45708;-92
2023/07/31 03:45:12;;;;;;;;;6.33;6.33;;;;;;;;4786634;29;46974;-92
2023/07/31 03:47:45;;;;;;;;;4.33;4.33;;;;;;;;4784297;29;45995;-92
2023/07/31 03:50:12;;;;;;;;;6.33;5.00;;;;;;;;4785308;29;46361;-92
2023/07/31 03:52:38;;;;;;;;;3.67;3.67;;;;;;;;4788125;29;45574;-93
2023/07/31 03:55:06;;;;;;;;;9.00;9.00;;;;;;;;4784945;29;46698;-92
2023/07/31 03:57:39;;;;;;;;;5.00;5.00;;;;;;;;4786215;29;45358;-92
2023/07/31 04:00:08;;;;;;;;;4.33;4.33;;;;;;;;4785557;29;45417;-92
2023/07/31 04:02:35;;;;;;;;;6.00;6.00;;;;;;;;4786561;29;45573;-92
2023/07/31 04:05:03;;;;;;;;;4.00;4.00;;;;;;;;4784609;29;47192;-92
2023/07/31 04:07:28;;;;;;;;;4.67;4.67;;;;;;;;4783620;29;45527;-92
2023/07/31 04:10:06;;;;;;;;;5.67;5.67;;;;;;;;4802934;29;45437;-92
2023/07/31 04:12:31;;;;;;;;;6.00;5.33;;;;;;;;4801438;29;45464;-92
2023/07/31 04:15:02;;;;;;;;;4.33;4.33;;;;;;;;4789608;29;46977;-92
2023/07/31 04:17:27;;;;;;;;;10.67;10.33;;;;;;;;4804709;29;45544;-93
2023/07/31 04:19:52;;;;;;;;;8.33;8.33;;;;;;;;4800707;29;45419;-92
2023/07/31 04:22:37;;;;;;;;;8.33;8.33;;;;;;;;4787975;29;45675;-92
2023/07/31 04:25:10;;;;;;;;;3.00;3.00;;;;;;;;4784912;29;47420;-92
2023/07/31 04:27:36;;;;;;;;;4.00;3.33;;;;;;;;4802260;29;45430;-92
2023/07/31 04:30:05;;;;;;;;;8.67;6.67;;;;;;;;4802045;29;45167;-92
2023/07/31 04:32:33;;;;;;;;;4.00;4.00;;;;;;;;4786940;29;46064;-92
2023/07/31 04:35:02;;;;;;;;;6.33;6.33;;;;;;;;4799326;29;45444;-92
2023/07/31 04:37:37;;;;;;;;;;;;;;;;;;;;;
2023/07/31 04:40:05;;;;;;;;;3.00;0.00;;;;;;;;4798876;29;68675;-92
2023/07/31 04:42:31;;;;;;;;;7.33;6.33;;;;;;;;4799879;29;45600;-92
2023/07/31 04:45:06;;;;;;;;;5.33;5.33;;;;;;;;4787031;29;46516;-92
2023/07/31 04:47:42;;;;;;;;;;;;;;;;;;;;;
2023/07/31 04:50:07;;;;;;;;;2.67;2.67;;;;;;;;4799018;29;67841;-92
2023/07/31 04:52:53;;;;;;;;;9.33;7.33;;;;;;;;4784906;29;45418;-92
2023/07/31 04:55:18;;;;;;;;;4.00;4.00;;;;;;;;4799312;29;45353;-92
2023/07/31 04:57:43;;;;;;;;;3.33;3.33;;;;;;;;4784742;29;45728;-93
2023/07/31 05:00:16;;;;;;;;;5.33;4.00;;;;;;;;4786408;29;45440;-92
2023/07/31 05:02:42;;;;;;;;;4.00;4.00;;;;;;;;4801007;29;45490;-92
2023/07/31 05:05:09;;;;;;;;;5.33;5.33;;;;;;;;4783644;29;48359;-92
2023/07/31 05:07:37;;;;;;;;;6.00;6.00;;;;;;;;4803544;29;45451;-92
2023/07/31 05:10:03;;;;;;;;;4.00;4.00;;;;;;;;4783806;29;45440;-92
2023/07/31 05:12:51;;;;;;;;;4.00;4.00;;;;;;;;4783764;29;45616;-92
2023/07/31 05:15:20;;;;;;;;;2.00;2.00;;;;;;;;4802593;29;46973;-92
2023/07/31 05:17:46;;;;;;;;;2.33;2.33;;;;;;;;4785668;29;45513;-92
2023/07/31 05:20:18;;;;;;;;;6.33;6.33;;;;;;;;4783846;29;46918;-92
2023/07/31 05:22:52;;;;;;;;;9.33;6.33;;;;;;;;4776864;29;47122;-92
2023/07/31 05:25:20;;;;;;;;;9.00;8.00;;;;;;;;4777373;29;48375;-92
2023/07/31 05:27:50;;;;;;;;;2.67;2.67;;;;;;;;4777910;29;45420;-92
2023/07/31 05:30:15;;;;;;;;;3.00;3.00;;;;;;;;4787455;29;45423;-92
2023/07/31 05:32:43;;;;;;;;;5.33;4.00;;;;;;;;4804437;29;45332;-92
2023/07/31 05:35:09;;;;;;;;;3.00;3.00;;;;;;;;4779214;29;47153;-92
2023/07/31 05:37:34;;;;;;;;;2.00;2.00;;;;;;;;4786104;29;45334;-92
2023/07/31 05:40:04;;;;;;;;;3.33;3.33;;;;;;;;4784940;29;45441;-92
2023/07/31 05:42:32;;;;;;;;;3.00;3.00;;;;;;;;4784530;29;45510;-92
2023/07/31 05:45:00;;;;;;;;;5.00;5.00;;;;;;;;4787590;29;46879;-92
2023/07/31 05:47:27;;;;;;;;;2.67;2.67;;;;;;;;4794420;29;45443;-92
2023/07/31 05:49:55;;;;;;;;;3.00;3.00;;;;;;;;4787884;29;45341;-92
2023/07/31 05:52:23;;;;;;;;;2.67;2.67;;;;;;;;4810245;29;45577;-92
2023/07/31 05:54:51;;;;;;;;;5.33;5.33;;;;;;;;4780196;29;47807;-92
2023/07/31 05:57:34;;;;;;;;;5.00;5.00;;;;;;;;4783043;29;45498;-92
2023/07/31 06:00:06;;;;;;;;;3.00;3.00;;;;;;;;4781301;29;45840;-92
2023/07/31 06:02:36;;;;;;;;;2.67;2.67;;;;;;;;4798818;29;45412;-92
2023/07/31 06:05:04;;;;;;;;;5.67;4.00;;;;;;;;4798801;29;45453;-92
2023/07/31 06:07:33;;;;;;;;;4.00;4.00;;;;;;;;4796162;29;45490;-92
2023/07/31 06:10:04;;;;;;;;;3.00;3.00;;;;;;;;4795234;29;45432;-92
2023/07/31 06:12:32;;;;;;;;;2.67;2.67;;;;;;;;4788357;29;45555;-92
2023/07/31 06:15:00;;;;;;;;;3.67;3.67;;;;;;;;4789938;29;47756;-91
2023/07/31 06:17:29;;;;;;;;;5.33;5.33;;;;;;;;4800156;29;45528;-92
2023/07/31 06:19:56;;;;;;;;;5.33;5.33;;;;;;;;4783865;29;45780;-92
2023/07/31 06:22:24;;;;;;;;;16.00;16.00;;;;;;;;4814605;29;45455;-92
2023/07/31 06:24:52;;;;;;;;;4.00;4.00;;;;;;;;4813746;29;46400;-92
2023/07/31 06:27:29;;;;;;;;;5.00;3.67;;;;;;;;4793148;29;45474;-92
2023/07/31 06:29:57;;;;;;;;;2.33;2.33;;;;;;;;4790859;29;45766;-92
2023/07/31 06:32:22;;;;;;;;;4.33;4.33;;;;;;;;4813894;29;45353;-92
2023/07/31 06:34:48;;;;;;;;;4.00;3.00;;;;;;;;4782572;29;47279;-91
2023/07/31 06:37:13;;;;;;;;;4.67;4.67;;;;;;;;4809708;29;47178;-92
2023/07/31 06:39:38;;;;;;;;;3.00;3.00;;;;;;;;4786477;29;45648;-92
2023/07/31 06:42:11;;;;;;;;;3.00;3.00;;;;;;;;4785504;29;45378;-92
2023/07/31 06:44:37;;;;;;;;;3.00;3.00;;;;;;;;4787884;29;47306;-92
2023/07/31 06:47:02;;;;;;;;;2.33;2.33;;;;;;;;4803632;29;45433;-93
2023/07/31 06:49:29;;;;;;;;;3.00;3.00;;;;;;;;4803056;29;45554;-92
2023/07/31 06:51:57;;;;;;;;;5.33;4.00;;;;;;;;4788557;29;46650;-92
2023/07/31 06:54:29;;;;;;;;;2.33;2.33;;;;;;;;4786864;29;47273;-92
2023/07/31 06:56:57;;;;;;;;;3.67;3.67;;;;;;;;4784811;29;45601;-92
2023/07/31 06:59:23;;;;;;;;;1.33;1.33;;;;;;;;4803901;29;45756;-94
2023/07/31 07:01:48;;;;;;;;;2.33;2.33;;;;;;;;4795438;29;45294;-93
2023/07/31 07:04:24;;;;;;;;;2.33;2.33;;;;;;;;4792090;29;46811;-92
2023/07/31 07:06:51;;;;;;;;;2.00;2.00;;;;;;;;4795934;29;45870;-92
2023/07/31 07:09:37;;;;;;;;;4.00;4.00;;;;;;;;4791007;29;45527;-92
2023/07/31 07:12:31;;;;;;;;;5.33;5.33;;;;;;;;4788207;29;45550;-93
2023/07/31 07:18:28;;;;;;;;;;;;;;;;;;;;;
2023/07/31 07:20:54;;;;;;;;;2.00;2.00;;;;;;;;4806024;29;67101;-91
2023/07/31 07:23:20;;;;;;;;;3.67;3.67;;;;;;;;4796987;29;45461;-91
2023/07/31 07:25:46;;;;;;;;;3.67;3.67;;;;;;;;4786839;29;48038;-92
2023/07/31 07:28:11;;;;;;;;;3.00;3.00;;;;;;;;4778566;29;45331;-92
2023/07/31 07:30:36;;;;;;;;;3.00;3.00;;;;;;;;4778813;29;45354;-92
2023/07/31 07:33:19;;;;;;;;;;;;;;;;;;;;;
2023/07/31 07:35:45;;;;;;;;;3.00;3.00;;;;;;;;4800506;29;73873;-92
2023/07/31 07:38:20;;;;;;;;;5.00;5.00;;;;;;;;4802333;29;45687;-92
2023/07/31 07:40:56;;;;;;;;;;;;;;;;;;;;;
2023/07/31 07:43:39;;;;;;;;;3.00;3.00;;;;;;;;4793977;29;65789;-92
2023/07/31 07:46:25;;;;;;;;;3.00;3.00;;;;;;;;4778191;29;47160;-92
2023/07/31 07:48:50;;;;;;;;;4.00;4.00;;;;;;;;4777792;29;45459;-91
2023/07/31 07:51:18;;;;;;;;;5.33;5.33;;;;;;;;4795095;29;45342;-91
2023/07/31 07:53:43;;;;;;;;;3.00;3.00;;;;;;;;4778600;29;45572;-91
2023/07/31 07:56:08;;;;;;;;;5.00;5.00;;;;;;;;4806835;29;45341;-91
2023/07/31 07:58:34;;;;;;;;;4.00;4.00;;;;;;;;4808713;29;45381;-92
2023/07/31 08:01:02;;;;;;;;;4.00;4.00;;;;;;;;4792147;29;45204;-93
2023/07/31 08:03:28;;;;;;;;;4.00;4.00;;;;;;;;4787274;29;45505;-92
2023/07/31 08:05:57;;;;;;;;;4.67;4.00;;;;;;;;4803297;29;46600;-91
2023/07/31 08:08:22;;;;;;;;;5.00;4.75;;;;;;;;4825347;29;8821;-91
2023/07/31 08:10:53;;;;;;;;;5.33;5.33;;;;;;;;4827790;29;9651;-92
2023/07/31 08:16:53;;;;;;;;;4.50;4.50;;;;;;;;4824975;29;8852;-92
2023/07/31 08:22:34;;;;;;;;;4.50;4.50;;;;;;;;4823275;29;8817;-93
2023/07/31 08:24:59;;;;;;;;;4.50;4.50;;;;;;;;4813673;29;8817;-92
2023/07/31 08:27:32;;;;;;;;;5.33;5.33;;;;;;;;4822351;29;8977;-92
2023/07/31 08:30:02;;;;;;;;;6.75;6.75;;;;;;;;4836899;29;8813;-92
2023/07/31 08:32:28;;;;;;;;;4.25;4.25;;;;;;;;4835834;29;8807;-92
2023/07/31 08:35:03;;;;;;;;;;;;;;;;;;;;;
2023/07/31 08:40:24;;;;;;;;;7.00;5.75;;;;;;;;4834354;29;8829;-92
2023/07/31 08:42:50;;;;;;;;;9.00;6.50;;;;;;;;4837608;29;8793;-93
2023/07/31 08:45:18;;;;;;;;;6.25;5.00;;;;;;;;4842522;29;9687;-92
2023/07/31 08:47:59;;;;;;;;;4.00;4.00;;;;;;;;4814763;29;8874;-92
2023/07/31 08:50:30;;;;;;;;;5.25;5.25;;;;;;;;4816237;29;8848;-92
2023/07/31 08:53:00;;;;;;;;;4.00;4.00;;;;;;;;4821410;29;8823;-92
2023/07/31 08:55:26;;;;;;;;;7.25;7.25;;;;;;;;4817240;29;8992;-92
2023/07/31 08:58:10;;;;;;;;;4.75;4.75;;;;;;;;4823540;29;8836;-92
2023/07/31 09:00:53;;;;;;;;;7.25;7.25;;;;;;;;4819455;29;8846;-93
2023/07/31 09:06:48;;;;;;;;;5.50;5.50;;;;;;;;4820110;29;8817;-92
2023/07/31 09:09:40;;;;;;;;;;;;;;;;;;;;;
2023/07/31 09:15:34;;;;;;;;;4.50;4.50;;;;;;;;4757241;29;8809;-92
2023/07/31 09:21:25;;;;;;;;;5.25;5.25;;;;;;;;4715460;30;9806;-93
2023/07/31 09:24:03;;;;;;;;;5.00;5.00;;;;;;;;4714759;30;8840;-92
2023/07/31 09:27:13;;;;;;;;;;;;;;;;;;;;;
2023/07/31 09:30:13;;;;;;;;;;;;;;;;;;;;;
2023/07/31 09:44:31;;;;;;;;;;;;;;;;;;;;;
2023/07/31 10:50:34;;;;;;;;;10.75;10.25;;;;;;;;4639806;24;9134;-94
2023/07/31 10:53:00;;;;;;;;;8.25;8.25;;;;;;;;4814705;29;8824;-96
2023/07/31 10:55:33;;;;;;;;;5.25;5.25;;;;;;;;4828683;29;8830;-95
2023/07/31 10:58:06;;;;;;;;;7.00;7.00;;;;;;;;4805144;29;8818;-96
2023/07/31 11:00:32;;;;;;;;;4.75;4.75;;;;;;;;4801568;29;8851;-96
2023/07/31 11:21:46;;;;;;;;;5.50;5.50;;;;;;;;4726954;30;8826;-89
2023/07/31 11:30:20;;;;;;;;;3.75;3.75;;;;;;;;4706842;30;8869;-89
2023/07/31 11:32:50;;;;;;;;;3.00;3.00;;;;;;;;4769126;30;8832;-89
2023/07/31 12:22:16;;;;;;;;;5.25;5.25;;;;;;;;4825041;29;8826;-94
2023/07/31 12:37:17;;;;;;;;;;;;;;;;;;;;;
2023/07/31 12:45:03;;;;;;;;;;;;;;;;;;;;;
2023/07/31 12:47:38;;;;;;;;;2.00;2.00;;;;;;;;4788438;29;35232;-94
2023/07/31 12:53:06;;;;;;;;;3.00;3.00;;;;;;;;4791072;29;8859;-94
2023/07/31 12:55:50;;;;;;;;;;;;;;;;;;;;;
2023/07/31 12:58:33;;;;;;;;;2.75;2.75;;;;;;;;4784263;29;35399;-94
2023/07/31 13:01:11;;;;;;;;;3.25;3.25;;;;;;;;4786073;29;8879;-94
2023/07/31 13:03:37;;;;;;;;;11.00;9.50;;;;;;;;4773867;29;9001;-94
2023/07/31 13:06:03;;;;;;;;;1.25;1.25;;;;;;;;4773116;29;9699;-94
2023/07/31 13:08:28;;;;;;;;;2.00;2.00;;;;;;;;4771426;29;9011;-95
2023/07/31 13:10:53;;;;;;;;;1.00;1.00;;;;;;;;4789646;29;8875;-94
2023/07/31 13:13:19;;;;;;;;;1.00;1.00;;;;;;;;4788800;29;9576;-94
2023/07/31 13:15:47;;;;;;;;;1.00;1.00;;;;;;;;4788540;29;8899;-94
2023/07/31 13:18:12;;;;;;;;;7.00;7.00;;;;;;;;4785964;29;8985;-93
2023/07/31 13:20:37;;;;;;;;;2.00;2.00;;;;;;;;4773134;29;8989;-93
2023/07/31 13:23:05;;;;;;;;;1.00;1.00;;;;;;;;4773852;29;9817;-93
2023/07/31 13:25:49;;;;;;;;;;;;;;;;;;;;;
2023/07/31 13:28:23;;;;;;;;;1.00;1.00;;;;;;;;4783852;29;34886;-95
2023/07/31 13:30:53;;;;;;;;;1.00;1.00;;;;;;;;4789118;29;8827;-94
2023/07/31 13:33:18;;;;;;;;;1.75;1.75;;;;;;;;4771237;30;8866;-94
2023/07/31 13:35:54;;;;;;;;;5.00;5.00;;;;;;;;4786660;29;8956;-94
2023/07/31 13:38:21;;;;;;;;;1.00;1.00;;;;;;;;4773090;29;8851;-94
2023/07/31 13:40:59;;;;;;;;;0.00;0.00;;;;;;;;4774060;29;8859;-94
2023/07/31 13:43:32;;;;;;;;;1.00;1.00;;;;;;;;4773784;29;8854;-94
2023/07/31 13:46:03;;;;;;;;;1.00;1.00;;;;;;;;4790179;29;8828;-94
2023/07/31 13:48:46;;;;;;;;;5.50;5.50;;;;;;;;4772300;29;8859;-94
2023/07/31 13:57:37;;;;;;;;;0.00;0.00;;;;;;;;4775887;29;8833;-94
2023/07/31 14:00:11;;;;;;;;;1.25;1.25;;;;;;;;4785346;29;8835;-94
2023/07/31 14:02:54;;;;;;;;;1.00;1.00;;;;;;;;4770925;29;8835;-94
2023/07/31 14:05:34;;;;;;;;;5.00;5.00;;;;;;;;4789189;29;8839;-94
2023/07/31 14:08:07;;;;;;;;;1.00;1.00;;;;;;;;4773212;29;8851;-95
2023/07/31 14:10:40;;;;;;;;;0.75;0.75;;;;;;;;4782607;29;8824;-95
2023/07/31 14:13:07;;;;;;;;;0.00;0.00;;;;;;;;4772602;29;8885;-96
2023/07/31 14:15:35;;;;;;;;;0.75;0.75;;;;;;;;4788817;29;8824;-95
2023/07/31 14:18:00;;;;;;;;;0.00;0.00;;;;;;;;4772196;29;8843;-94
2023/07/31 14:20:39;;;;;;;;;3.33;3.33;;;;;;;;4871644;24;8843;-96
2023/07/31 14:23:04;;;;;;;;;0.00;0.00;;;;;;;;4817854;29;8819;-95
2023/07/31 14:25:29;;;;;;;;;0.00;0.00;;;;;;;;4820764;29;8894;-95
2023/07/31 14:27:54;;;;;;;;;0.00;0.00;;;;;;;;4828055;29;8855;-95
2023/07/31 14:30:20;;;;;;;;;0.00;0.00;;;;;;;;4790115;29;8961;-94
2023/07/31 14:33:11;;;;;;;;;1.00;1.00;;;;;;;;4787175;29;8897;-94
2023/07/31 14:50:39;;;;;;;;;;;;;;;;;;;;;
2023/07/31 14:53:05;;;;;;;;;4.00;4.00;;;;;;;;4766388;29;36598;-93
2023/07/31 14:55:33;;;;;;;;;0.67;0.67;;;;;;;;4770114;29;8896;-94
2023/07/31 14:58:16;;;;;;;;;0.00;0.00;;;;;;;;4772114;29;8862;-95
2023/07/31 15:00:45;;;;;;;;;0.50;0.50;;;;;;;;4766418;29;8873;-94
2023/07/31 15:03:13;;;;;;;;;0.00;0.00;;;;;;;;4789183;29;8812;-93
2023/07/31 15:05:43;;;;;;;;;2.00;2.00;;;;;;;;4767067;29;8842;-94
2023/07/31 15:08:11;;;;;;;;;0.00;0.00;;;;;;;;4771479;29;8844;-93
2023/07/31 15:10:36;;;;;;;;;1.00;1.00;;;;;;;;4787639;29;8830;-92
2023/07/31 15:13:16;;;;;;;;;0.00;0.00;;;;;;;;4787704;29;8866;-95
2023/07/31 15:16:41;;;;;;;;;1.00;0.00;;;;;;;;4790524;29;8844;-95
2023/07/31 15:18:52;;;;;;;;;;;;;;;;;;;;;
2023/07/31 15:21:17;;;;;;;;;5.25;5.25;;;;;;;;4790235;29;34473;-94
2023/07/31 15:23:43;;;;;;;;;6.33;6.33;;;;;;;;4768959;29;8863;-93
2023/07/31 15:26:10;;;;;;;;;0.67;0.67;;;;;;;;4766666;29;8931;-93
2023/07/31 15:28:44;;;;;;;;;0.00;0.00;;;;;;;;4773805;29;8954;-93
2023/07/31 15:31:22;;;;;;;;;0.00;0.00;;;;;;;;4774725;29;8952;-94
2023/07/31 15:33:58;;;;;;;;;;;;;;;;;;;;;
2023/07/31 15:36:26;;;;;;;;;0.00;0.00;;;;;;;;4788754;29;37236;-94
2023/07/31 15:38:54;;;;;;;;;1.00;1.00;;;;;;;;4789431;29;8842;-93
2023/07/31 15:41:19;;;;;;;;;1.00;1.00;;;;;;;;4789557;29;8845;-93
2023/07/31 15:43:56;;;;;;;;;0.00;0.00;;;;;;;;4787087;29;8992;-94
2023/07/31 15:46:24;;;;;;;;;0.00;0.00;;;;;;;;4787050;29;8850;-94
2023/07/31 15:48:53;;;;;;;;;0.25;0.25;;;;;;;;4772787;29;10050;-95
2023/07/31 15:51:18;;;;;;;;;0.00;0.00;;;;;;;;4771662;29;8842;-93
2023/07/31 15:53:49;;;;;;;;;0.67;0.67;;;;;;;;4772178;29;8858;-94
2023/07/31 15:56:15;;;;;;;;;0.50;0.50;;;;;;;;4760089;29;8844;-94
2023/07/31 15:59:14;;;;;;;;;0.00;0.00;;;;;;;;4771492;29;8854;-95
2023/07/31 16:05:32;;;;;;;;;3.00;3.00;;;;;;;;4751460;29;9656;-95
2023/07/31 16:08:07;;;;;;;;;8.50;8.50;;;;;;;;4704326;30;8864;-94
2023/07/31 16:10:33;;;;;;;;;1.00;1.00;;;;;;;;4698088;30;8931;-93
2023/07/31 16:13:03;;;;;;;;;1.00;1.00;;;;;;;;4736823;29;8874;-95
2023/07/31 16:15:53;;;;;;;;;0.25;0.25;;;;;;;;4772395;29;8838;-95
2023/07/31 16:18:18;;;;;;;;;1.00;1.00;;;;;;;;4768773;29;9752;-93
2023/07/31 16:20:54;;;;;;;;;2.00;2.00;;;;;;;;4766779;29;8868;-95
2023/07/31 16:23:19;;;;;;;;;0.00;0.00;;;;;;;;4771263;29;8864;-94
2023/07/31 16:25:49;;;;;;;;;1.00;1.00;;;;;;;;4764518;29;8885;-93
2023/07/31 16:28:15;;;;;;;;;1.00;1.00;;;;;;;;4783013;29;8854;-93
2023/07/31 16:30:45;;;;;;;;;1.00;1.00;;;;;;;;4763570;29;8960;-94
2023/07/31 16:33:10;;;;;;;;;1.50;1.50;;;;;;;;4763246;29;8785;-95
2023/07/31 16:35:36;;;;;;;;;1.00;1.00;;;;;;;;4769500;29;8895;-94
2023/07/31 16:38:07;;;;;;;;;1.00;1.00;;;;;;;;4786580;29;8853;-94
2023/07/31 16:40:39;;;;;;;;;1.75;1.75;;;;;;;;4769858;29;8852;-94
2023/07/31 16:43:07;;;;;;;;;1.00;1.00;;;;;;;;4762381;29;8832;-94
2023/07/31 16:45:32;;;;;;;;;1.00;1.00;;;;;;;;4773121;29;8853;-93
2023/07/31 16:47:57;;;;;;;;;0.00;0.00;;;;;;;;4755930;30;8881;-94
2023/07/31 16:50:22;;;;;;;;;0.67;0.67;;;;;;;;4772658;30;8919;-93
2023/07/31 16:52:48;;;;;;;;;1.00;1.00;;;;;;;;4757081;30;8869;-94
2023/07/31 16:55:13;;;;;;;;;0.67;0.67;;;;;;;;4745212;30;9634;-94
2023/07/31 16:57:38;;;;;;;;;2.00;1.00;;;;;;;;4747237;30;8897;-93
2023/07/31 17:00:04;;;;;;;;;1.00;1.00;;;;;;;;4766001;30;8845;-92
2023/07/31 17:02:29;;;;;;;;;0.00;0.00;;;;;;;;4772506;29;8856;-93
2023/07/31 17:04:59;;;;;;;;;1.00;1.00;;;;;;;;4750010;30;9617;-93
2023/07/31 17:07:25;;;;;;;;;0.50;0.50;;;;;;;;4748753;30;8826;-94
2023/07/31 17:09:50;;;;;;;;;1.00;1.00;;;;;;;;4752918;30;8853;-93
2023/07/31 17:12:15;;;;;;;;;0.33;0.33;;;;;;;;4770845;30;8926;-92
2023/07/31 17:14:40;;;;;;;;;0.00;0.00;;;;;;;;4771519;30;8853;-93
2023/07/31 17:17:06;;;;;;;;;1.00;1.00;;;;;;;;4753142;30;8904;-93
2023/07/31 17:19:31;;;;;;;;;0.00;0.00;;;;;;;;4770923;29;8999;-93
2023/07/31 17:21:56;;;;;;;;;0.00;0.00;;;;;;;;4772642;30;8849;-93
2023/07/31 17:24:22;;;;;;;;;1.00;1.00;;;;;;;;4752402;30;8884;-93
2023/07/31 17:26:57;;;;;;;;;;;;;;;;;;;;;
2023/07/31 17:29:49;;;;;;;;;0.75;0.75;;;;;;;;4767865;30;35209;-95
2023/07/31 17:32:21;;;;;;;;;0.00;0.00;;;;;;;;4772192;30;8808;-94
2023/07/31 17:34:47;;;;;;;;;0.50;0.50;;;;;;;;4756608;29;8823;-92
2023/07/31 17:37:14;;;;;;;;;1.00;1.00;;;;;;;;4749192;30;9017;-92
2023/07/31 17:39:50;;;;;;;;;1.00;1.00;;;;;;;;4753775;30;8825;-92
2023/07/31 17:42:15;;;;;;;;;0.75;0.75;;;;;;;;4763642;30;8814;-93
2023/07/31 17:44:40;;;;;;;;;1.00;1.00;;;;;;;;4771828;30;8822;-93
2023/07/31 17:47:05;;;;;;;;;1.00;1.00;;;;;;;;4756403;30;8896;-92
2023/07/31 17:49:31;;;;;;;;;1.00;1.00;;;;;;;;4747351;30;8868;-92
2023/07/31 17:51:56;;;;;;;;;0.67;0.67;;;;;;;;4772410;30;8924;-93
2023/07/31 17:54:21;;;;;;;;;0.00;0.00;;;;;;;;4770833;30;8913;-92
2023/07/31 17:56:47;;;;;;;;;1.00;1.00;;;;;;;;4755764;30;8889;-92
2023/07/31 17:59:12;;;;;;;;;0.00;0.00;;;;;;;;4773944;30;8972;-93
2023/07/31 18:01:37;;;;;;;;;0.67;0.67;;;;;;;;4772700;30;8911;-92
2023/07/31 18:04:04;;;;;;;;;0.00;0.00;;;;;;;;4754732;30;8853;-93
2023/07/31 18:06:33;;;;;;;;;0.00;0.00;;;;;;;;4771871;30;8832;-93
2023/07/31 18:08:59;;;;;;;;;0.25;0.25;;;;;;;;4754289;30;9824;-93
2023/07/31 18:11:26;;;;;;;;;0.00;0.00;;;;;;;;4756933;30;8857;-93
2023/07/31 18:13:53;;;;;;;;;0.25;0.25;;;;;;;;4773825;30;8956;-94
2023/07/31 18:16:18;;;;;;;;;2.00;2.00;;;;;;;;4753141;30;9026;-94
2023/07/31 18:18:54;;;;;;;;;;;;;;;;;;;;;
2023/07/31 18:21:24;;;;;;;;;0.00;0.00;;;;;;;;4773451;30;35362;-93
2023/07/31 18:23:54;;;;;;;;;0.00;0.00;;;;;;;;4758257;30;8838;-93
2023/07/31 18:26:20;;;;;;;;;0.00;0.00;;;;;;;;4754691;30;8868;-94
2023/07/31 18:29:08;;;;;;;;;0.00;0.00;;;;;;;;4773748;30;8902;-94
2023/07/31 18:31:36;;;;;;;;;0.00;0.00;;;;;;;;4768034;30;8820;-93
2023/07/31 18:34:01;;;;;;;;;0.00;0.00;;;;;;;;4750179;30;8828;-94
2023/07/31 18:36:27;;;;;;;;;0.00;0.00;;;;;;;;4757963;30;8917;-94
2023/07/31 18:38:52;;;;;;;;;0.00;0.00;;;;;;;;4746169;30;8861;-94
2023/07/31 18:41:17;;;;;;;;;0.00;0.00;;;;;;;;4773596;30;8909;-94
2023/07/31 18:43:42;;;;;;;;;1.00;1.00;;;;;;;;4763282;30;9628;-93
2023/07/31 18:46:08;;;;;;;;;0.00;0.00;;;;;;;;4748240;30;9635;-93
2023/07/31 18:48:33;;;;;;;;;0.00;0.00;;;;;;;;4763213;30;8910;-92
2023/07/31 18:50:58;;;;;;;;;0.67;0.67;;;;;;;;4767915;30;8842;-92
2023/07/31 18:53:24;;;;;;;;;0.00;0.00;;;;;;;;4772861;30;8861;-92
2023/07/31 18:55:49;;;;;;;;;0.00;0.00;;;;;;;;4768227;30;9054;-92
2023/07/31 18:58:14;;;;;;;;;0.33;0.33;;;;;;;;4752798;30;8838;-92
2023/07/31 19:00:40;;;;;;;;;0.00;0.00;;;;;;;;4748905;30;8859;-92
2023/07/31 19:03:05;;;;;;;;;0.00;0.00;;;;;;;;4771692;30;8834;-91
2023/07/31 19:05:31;;;;;;;;;0.00;0.00;;;;;;;;4773940;30;8891;-92
2023/07/31 19:07:59;;;;;;;;;0.00;0.00;;;;;;;;4772082;30;8888;-92